Galena, IL

6:04 PM CST on February 26, 2017 (GMT -0600)
Quality Hill | | Change Station
Active Advisory: Flood Watch Active Notice: Flood Watch

Elev 761 ft 42.42 °N, 90.43 °W | Updated 1 minute ago

Clear
Clear
40.3 °F
Feels Like 40 °F
N
0.0
Wind Variable Wind from WSW

Today
High -- | Low -- °F
--% Chance of Precip.
Yesterday
High -- | Low -- °F
Precip. -- in
Pressure 29.97 in
Visibility 10.0 miles
Clouds Clear
Windchill 40 °F
Dew Point 28 °F
Humidity 63%
Rainfall 0.00 in
Snow Depth Not available.
6:41 AM 5:48 PM
New Moon, 0% visible
METAR KDBQ 262353Z 29010KT 10SM CLR 03/M03 A2993 RMK AO2 SLP148 T00281028 10061 20028 53017
Pressure 29.97 in
Visibility 10.0 miles
Clouds Clear
Windchill 40 °F
Dew Point 28 °F
Humidity 63%
Rainfall 0.00 in
Snow Depth Not available.
6:41 AM 5:48 PM
New Moon, 0% visible
METAR KDBQ 262353Z 29010KT 10SM CLR 03/M03 A2993 RMK AO2 SLP148 T00281028 10061 20028 53017

Get Your Daily Forecast Email!

Thanks for signing up!

Be on the lookout for a verification email in your inbox.

You'll start receiving the daily forecast at 8 AM.

×

10-Day Weather Forecast

Almanac

Astronomy

Feb. 26, 2017 Rise Set
Actual Time
Civil Twilight
Nautical Twilight
Astronomical Twilight
Moon
Length of Visible Light
Length of Day
Tomorrow will be .
, % of the Moon is Illuminated

Today's Extremes

State Highs State Lows

Community

WunderPhotos

Upload Photos

1,962,540 photos uploaded!

WunderBlog® & News

Nearby

Air Quality

  Air Quality AQ Index Pollutant
Not available.

Snow Depth

Station Depth Elevation

Earthquake Activity

City Distance Mag. Time & Date
Minimum magnitude displayed is 2.5.

Coastal Water Temperatures

Place Temperature

Stations

Nearby Weather Stations

Station Location Temp. Windchill Dew Point Humidity Wind Precip. Elev Updated Type
                   

Watches & Warnings

Flood Watch
Issued: 11:59 AM CST Feb. 26, 2017 – National Weather Service

The National Weather Service in Quad Cities has issued a
* Flood Watch for
the Mississippi River at Dubuque
* until further notice.
* At 11:30 am Sunday the stage was 13.4 feet.
* Flood stage is 17.0 feet.
* Minor flooding is possible.
* Forecast... rise above flood stage Friday morning... and continue
rising to 17.2 feet Friday evening March 3rd.
* This forecast is based on routed flow from upstream in combination
with some snow melt. This forecast does not account for predicted
rainfall later this week which will influence future river levels.



Lat... Lon 4254 9060 4253 9068 4247 9068 4228 9046
      4235 9039